OCN9ZF EDDF-LGIR
Flight info
| Callsign | OCN9ZF |
|---|---|
| Flight time | 2h 45m |
| Altitude | 35000 |
| Route | CINDY6F CINDY Z74 LAMPU DCT NOMBO Y161 MAH DCT VAVOR DCT RADIZ DCT PINDO DCT KEA UL607 GIVIS T514 XAVIS |
| Aircraft | A320/M-SDE3FGHIRWY/LB1 |
Departure
| Time | 2026-05-07 06:30 |
|---|---|
| Airport | Frankfurt Main Airport (EDDF) |
Arrival
| Time | 2026-05-07 09:16 |
|---|---|
| Airport | Heraklion International Nikos Kazantzakis Airport (LGIR) |
| Time | Latitude | Longitude | Altitude | Speed | Heading |
|---|---|---|---|---|---|
| 2026-05-07 06:05 | 50.04910 | 8.58866 | 363 ft | 0 kts | 160° |
| 2026-05-07 06:22 | 50.04944 | 8.58847 | 361 ft | 3 kts | 160° |
| 2026-05-07 06:22 | 50.04969 | 8.58839 | 360 ft | 4 kts | 188° |
| 2026-05-07 06:23 | 50.04991 | 8.58854 | 364 ft | 4 kts | 233° |
| 2026-05-07 06:23 | 50.05003 | 8.58889 | 359 ft | 4 kts | 250° |
| 2026-05-07 06:23 | 50.05007 | 8.58906 | 363 ft | 0 kts | 250° |
| 2026-05-07 06:27 | 50.05006 | 8.58905 | 359 ft | 1 kts | 250° |
| 2026-05-07 06:27 | 50.04985 | 8.58815 | 362 ft | 14 kts | 250° |
| 2026-05-07 06:27 | 50.04947 | 8.58682 | 365 ft | 13 kts | 219° |
| 2026-05-07 06:27 | 50.04873 | 8.58692 | 366 ft | 9 kts | 160° |
| 2026-05-07 06:28 | 50.04821 | 8.58722 | 366 ft | 11 kts | 159° |
| 2026-05-07 06:28 | 50.04754 | 8.58760 | 369 ft | 8 kts | 160° |
| 2026-05-07 06:28 | 50.04716 | 8.58769 | 369 ft | 4 kts | 184° |
| 2026-05-07 06:28 | 50.04636 | 8.58757 | 370 ft | 16 kts | 186° |
| 2026-05-07 06:29 | 50.04547 | 8.58671 | 371 ft | 15 kts | 218° |
| 2026-05-07 06:29 | 50.04479 | 8.58560 | 370 ft | 6 kts | 251° |
| 2026-05-07 06:29 | 50.04464 | 8.58493 | 371 ft | 13 kts | 250° |
| 2026-05-07 06:29 | 50.04343 | 8.57987 | 365 ft | 85 kts | 250° |
| 2026-05-07 06:30 | 50.04068 | 8.56838 | 363 ft | 139 kts | 249° |
| 2026-05-07 06:30 | 50.03676 | 8.55206 | 367 ft | 179 kts | 250° |
| 2026-05-07 06:30 | 50.03236 | 8.53412 | 1013 ft | 177 kts | 250° |
| 2026-05-07 06:30 | 50.02795 | 8.51632 | 1690 ft | 180 kts | 244° |
| 2026-05-07 06:31 | 50.01876 | 8.50204 | 1986 ft | 202 kts | 207° |
| 2026-05-07 06:31 | 50.00511 | 8.49415 | 2365 ft | 215 kts | 198° |
| 2026-05-07 06:31 | 49.99017 | 8.49245 | 3034 ft | 220 kts | 168° |
| 2026-05-07 06:31 | 49.97652 | 8.50318 | 3739 ft | 224 kts | 136° |
| 2026-05-07 06:32 | 49.96755 | 8.52309 | 4437 ft | 227 kts | 119° |
| 2026-05-07 06:32 | 49.95968 | 8.54489 | 4950 ft | 242 kts | 119° |
| 2026-05-07 06:32 | 49.95106 | 8.56889 | 5278 ft | 265 kts | 119° |
| 2026-05-07 06:32 | 49.94297 | 8.59530 | 5897 ft | 275 kts | 107° |
| 2026-05-07 06:33 | 49.93986 | 8.62483 | 6638 ft | 280 kts | 92° |
| 2026-05-07 06:33 | 49.93860 | 8.65513 | 7400 ft | 284 kts | 97° |
| 2026-05-07 06:33 | 49.93312 | 8.68465 | 8137 ft | 288 kts | 116° |
| 2026-05-07 06:33 | 49.92188 | 8.71048 | 8867 ft | 291 kts | 134° |
| 2026-05-07 06:34 | 49.90617 | 8.73039 | 9584 ft | 293 kts | 146° |
| 2026-05-07 06:34 | 49.89017 | 8.75028 | 10303 ft | 297 kts | 135° |
| 2026-05-07 06:34 | 49.87685 | 8.77536 | 10651 ft | 317 kts | 123° |
| 2026-05-07 06:34 | 49.86539 | 8.80648 | 10824 ft | 340 kts | 119° |
| 2026-05-07 06:35 | 49.85372 | 8.83902 | 11061 ft | 358 kts | 119° |
| 2026-05-07 06:35 | 49.84155 | 8.87300 | 11603 ft | 364 kts | 119° |
| 2026-05-07 06:35 | 49.82901 | 8.90793 | 12269 ft | 367 kts | 120° |
| 2026-05-07 06:35 | 49.81667 | 8.94208 | 12919 ft | 370 kts | 120° |
| 2026-05-07 06:36 | 49.80399 | 8.97688 | 13548 ft | 373 kts | 120° |
| 2026-05-07 06:36 | 49.79119 | 9.01183 | 14161 ft | 376 kts | 120° |
| 2026-05-07 06:36 | 49.77821 | 9.04730 | 14767 ft | 379 kts | 120° |
| 2026-05-07 06:36 | 49.76576 | 9.08337 | 15346 ft | 382 kts | 114° |
| 2026-05-07 06:37 | 49.75705 | 9.12232 | 15879 ft | 386 kts | 104° |
| 2026-05-07 06:37 | 49.74962 | 9.16217 | 16417 ft | 388 kts | 111° |
| 2026-05-07 06:37 | 49.73765 | 9.19962 | 16937 ft | 390 kts | 122° |
| 2026-05-07 06:37 | 49.72126 | 9.23322 | 17456 ft | 392 kts | 132° |
| 2026-05-07 06:38 | 49.70305 | 9.26478 | 17957 ft | 395 kts | 132° |
| 2026-05-07 06:38 | 49.68485 | 9.29669 | 18445 ft | 398 kts | 131° |
| 2026-05-07 06:38 | 49.66656 | 9.32897 | 18927 ft | 400 kts | 131° |
| 2026-05-07 06:38 | 49.64821 | 9.36147 | 19405 ft | 403 kts | 131° |
| 2026-05-07 06:39 | 49.62956 | 9.39402 | 19858 ft | 405 kts | 135° |
| 2026-05-07 06:39 | 49.60834 | 9.42267 | 20296 ft | 407 kts | 144° |
| 2026-05-07 06:39 | 49.58428 | 9.44591 | 20715 ft | 409 kts | 150° |
| 2026-05-07 06:39 | 49.55967 | 9.46819 | 21127 ft | 412 kts | 150° |
| 2026-05-07 06:40 | 49.53497 | 9.49064 | 21539 ft | 414 kts | 150° |
| 2026-05-07 06:40 | 49.51008 | 9.51333 | 21937 ft | 417 kts | 150° |
| 2026-05-07 06:40 | 49.48503 | 9.53621 | 22332 ft | 419 kts | 150° |
| 2026-05-07 06:40 | 49.46033 | 9.55874 | 22719 ft | 422 kts | 150° |
| 2026-05-07 06:41 | 49.43454 | 9.58224 | 23114 ft | 424 kts | 150° |
| 2026-05-07 06:41 | 49.40910 | 9.60535 | 23482 ft | 426 kts | 150° |
| 2026-05-07 06:41 | 49.38388 | 9.62822 | 23827 ft | 429 kts | 150° |
| 2026-05-07 06:41 | 49.35852 | 9.65124 | 24176 ft | 431 kts | 149° |
| 2026-05-07 06:42 | 49.33417 | 9.67812 | 24510 ft | 433 kts | 140° |
| 2026-05-07 06:42 | 49.31253 | 9.71034 | 24833 ft | 436 kts | 135° |
| 2026-05-07 06:42 | 49.29120 | 9.74342 | 25165 ft | 437 kts | 135° |
| 2026-05-07 06:42 | 49.26962 | 9.77645 | 25492 ft | 439 kts | 136° |
| 2026-05-07 06:43 | 49.24795 | 9.80938 | 25820 ft | 441 kts | 136° |
| 2026-05-07 06:43 | 49.22613 | 9.84245 | 26140 ft | 442 kts | 136° |
| 2026-05-07 06:43 | 49.20423 | 9.87556 | 26447 ft | 443 kts | 136° |
| 2026-05-07 06:43 | 49.18238 | 9.90859 | 26738 ft | 445 kts | 136° |
| 2026-05-07 06:44 | 49.16040 | 9.94184 | 27032 ft | 446 kts | 136° |
| 2026-05-07 06:44 | 49.13826 | 9.97532 | 27313 ft | 448 kts | 136° |
| 2026-05-07 06:44 | 49.11609 | 10.00884 | 27575 ft | 449 kts | 136° |
| 2026-05-07 06:44 | 49.09385 | 10.04237 | 27821 ft | 450 kts | 136° |
| 2026-05-07 06:45 | 49.07161 | 10.07592 | 28092 ft | 451 kts | 136° |
| 2026-05-07 06:45 | 49.04917 | 10.10940 | 28360 ft | 452 kts | 137° |
| 2026-05-07 06:45 | 49.02630 | 10.14235 | 28608 ft | 453 kts | 138° |
| 2026-05-07 06:45 | 49.00321 | 10.17489 | 28845 ft | 454 kts | 139° |
| 2026-05-07 06:46 | 48.98019 | 10.20698 | 29119 ft | 454 kts | 139° |
| 2026-05-07 06:46 | 48.95692 | 10.23932 | 29452 ft | 452 kts | 139° |
| 2026-05-07 06:46 | 48.93377 | 10.27161 | 29793 ft | 451 kts | 139° |
| 2026-05-07 06:46 | 48.91039 | 10.30440 | 30120 ft | 451 kts | 139° |
| 2026-05-07 06:47 | 48.88775 | 10.33632 | 30439 ft | 449 kts | 139° |
| 2026-05-07 06:47 | 48.86486 | 10.36861 | 30754 ft | 449 kts | 139° |
| 2026-05-07 06:47 | 48.84202 | 10.40081 | 31041 ft | 448 kts | 139° |
| 2026-05-07 06:47 | 48.81931 | 10.43317 | 31331 ft | 448 kts | 138° |
| 2026-05-07 06:48 | 48.79724 | 10.46678 | 31612 ft | 449 kts | 136° |
| 2026-05-07 06:48 | 48.77584 | 10.50123 | 31890 ft | 449 kts | 135° |
| 2026-05-07 06:48 | 48.75474 | 10.53609 | 32164 ft | 449 kts | 134° |
| 2026-05-07 06:48 | 48.73370 | 10.57099 | 32432 ft | 449 kts | 135° |
| 2026-05-07 06:49 | 48.71251 | 10.60576 | 32706 ft | 448 kts | 135° |
| 2026-05-07 06:49 | 48.69256 | 10.63800 | 32961 ft | 447 kts | 136° |
| 2026-05-07 06:49 | 48.67111 | 10.67215 | 33227 ft | 447 kts | 136° |
| 2026-05-07 06:49 | 48.64966 | 10.70602 | 33490 ft | 447 kts | 136° |
| 2026-05-07 06:50 | 48.62813 | 10.73993 | 33740 ft | 446 kts | 136° |
| 2026-05-07 06:50 | 48.60666 | 10.77370 | 33984 ft | 446 kts | 136° |
| 2026-05-07 06:50 | 48.58519 | 10.80761 | 34231 ft | 446 kts | 136° |
| 2026-05-07 06:50 | 48.56388 | 10.84145 | 34467 ft | 446 kts | 136° |
| 2026-05-07 06:51 | 48.54254 | 10.87559 | 34709 ft | 446 kts | 135° |
| 2026-05-07 06:51 | 48.52136 | 10.90963 | 34933 ft | 446 kts | 135° |
| 2026-05-07 06:51 | 48.47862 | 10.97822 | 34955 ft | 449 kts | 136° |
| 2026-05-07 06:52 | 48.43550 | 11.04589 | 34971 ft | 448 kts | 136° |
| 2026-05-07 06:52 | 48.39238 | 11.11255 | 34980 ft | 447 kts | 137° |
| 2026-05-07 06:53 | 48.34906 | 11.17950 | 34980 ft | 447 kts | 137° |
| 2026-05-07 06:53 | 48.30579 | 11.24639 | 34986 ft | 446 kts | 137° |
| 2026-05-07 06:54 | 48.26363 | 11.31485 | 34984 ft | 448 kts | 129° |
| 2026-05-07 06:54 | 48.23129 | 11.39511 | 34982 ft | 450 kts | 123° |
| 2026-05-07 06:55 | 48.19995 | 11.47656 | 34983 ft | 450 kts | 123° |
| 2026-05-07 06:55 | 48.17066 | 11.55209 | 35003 ft | 450 kts | 123° |
| 2026-05-07 06:56 | 48.13908 | 11.63314 | 34997 ft | 451 kts | 123° |
| 2026-05-07 06:56 | 48.10747 | 11.71427 | 34994 ft | 450 kts | 123° |
| 2026-05-07 06:57 | 48.07586 | 11.79512 | 34997 ft | 450 kts | 123° |
| 2026-05-07 06:57 | 48.04418 | 11.87584 | 34986 ft | 450 kts | 124° |
| 2026-05-07 06:58 | 48.01247 | 11.95651 | 34985 ft | 450 kts | 124° |
| 2026-05-07 06:58 | 47.98073 | 12.03705 | 34983 ft | 450 kts | 124° |
| 2026-05-07 06:59 | 47.94881 | 12.11737 | 34984 ft | 449 kts | 126° |
| 2026-05-07 06:59 | 47.90850 | 12.18690 | 34994 ft | 441 kts | 143° |
| 2026-05-07 07:00 | 47.86155 | 12.24561 | 35000 ft | 441 kts | 143° |
| 2026-05-07 07:00 | 47.81483 | 12.30409 | 34996 ft | 441 kts | 143° |
| 2026-05-07 07:01 | 47.76760 | 12.36310 | 35007 ft | 441 kts | 143° |
| 2026-05-07 07:01 | 47.72064 | 12.42167 | 35006 ft | 441 kts | 143° |
| 2026-05-07 07:02 | 47.67359 | 12.48017 | 35011 ft | 441 kts | 143° |
| 2026-05-07 07:02 | 47.62638 | 12.53845 | 35013 ft | 442 kts | 143° |
| 2026-05-07 07:03 | 47.58059 | 12.59964 | 35013 ft | 444 kts | 140° |
| 2026-05-07 07:03 | 47.53620 | 12.66293 | 35011 ft | 443 kts | 139° |
| 2026-05-07 07:04 | 47.49169 | 12.72604 | 35014 ft | 444 kts | 140° |
| 2026-05-07 07:04 | 47.44667 | 12.78857 | 35017 ft | 444 kts | 140° |
| 2026-05-07 07:05 | 47.40184 | 12.85023 | 35020 ft | 443 kts | 141° |
| 2026-05-07 07:05 | 47.35686 | 12.91207 | 35024 ft | 442 kts | 141° |
| 2026-05-07 07:06 | 47.31174 | 12.97394 | 35022 ft | 442 kts | 141° |
| 2026-05-07 07:06 | 47.26673 | 13.03557 | 35014 ft | 442 kts | 141° |
| 2026-05-07 07:07 | 47.22929 | 13.08678 | 35014 ft | 441 kts | 141° |
| 2026-05-07 07:07 | 47.18432 | 13.14822 | 35014 ft | 442 kts | 141° |
| 2026-05-07 07:08 | 47.13927 | 13.20963 | 35010 ft | 442 kts | 141° |
| 2026-05-07 07:08 | 47.09421 | 13.27085 | 35009 ft | 442 kts | 141° |
| 2026-05-07 07:09 | 47.04904 | 13.33197 | 35010 ft | 441 kts | 141° |
| 2026-05-07 07:09 | 47.00387 | 13.39292 | 35005 ft | 441 kts | 141° |
| 2026-05-07 07:10 | 46.95871 | 13.45377 | 34986 ft | 441 kts | 141° |
| 2026-05-07 07:10 | 46.91363 | 13.51449 | 34981 ft | 441 kts | 141° |
| 2026-05-07 07:11 | 46.86841 | 13.57526 | 35003 ft | 442 kts | 141° |
| 2026-05-07 07:11 | 46.82306 | 13.63592 | 35005 ft | 442 kts | 141° |
| 2026-05-07 07:12 | 46.77756 | 13.69660 | 34992 ft | 443 kts | 141° |
| 2026-05-07 07:12 | 46.73215 | 13.75705 | 35003 ft | 442 kts | 141° |
| 2026-05-07 07:13 | 46.68669 | 13.81749 | 34987 ft | 442 kts | 141° |
| 2026-05-07 07:13 | 46.64118 | 13.87781 | 35003 ft | 442 kts | 141° |
| 2026-05-07 07:14 | 46.59557 | 13.93811 | 35006 ft | 444 kts | 141° |
| 2026-05-07 07:14 | 46.54988 | 13.99828 | 34995 ft | 444 kts | 141° |
| 2026-05-07 07:15 | 46.50415 | 14.05847 | 35001 ft | 443 kts | 141° |
| 2026-05-07 07:15 | 46.45844 | 14.11853 | 35009 ft | 443 kts | 141° |
| 2026-05-07 07:16 | 46.41266 | 14.17841 | 34997 ft | 443 kts | 141° |
| 2026-05-07 07:16 | 46.36692 | 14.23829 | 34998 ft | 443 kts | 141° |
| 2026-05-07 07:17 | 46.32118 | 14.29803 | 34991 ft | 443 kts | 142° |
| 2026-05-07 07:17 | 46.27561 | 14.35730 | 34993 ft | 443 kts | 142° |
| 2026-05-07 07:18 | 46.22973 | 14.41680 | 34997 ft | 443 kts | 142° |
| 2026-05-07 07:18 | 46.18382 | 14.47629 | 34994 ft | 443 kts | 142° |
| 2026-05-07 07:19 | 46.13791 | 14.53561 | 34986 ft | 443 kts | 142° |
| 2026-05-07 07:19 | 46.09195 | 14.59481 | 35001 ft | 443 kts | 142° |
| 2026-05-07 07:20 | 46.04623 | 14.65370 | 34986 ft | 442 kts | 142° |
| 2026-05-07 07:20 | 46.00035 | 14.71260 | 34990 ft | 443 kts | 142° |
| 2026-05-07 07:21 | 45.95434 | 14.77138 | 34986 ft | 443 kts | 142° |
| 2026-05-07 07:21 | 45.90818 | 14.83019 | 34982 ft | 443 kts | 142° |
| 2026-05-07 07:22 | 45.86206 | 14.88895 | 34985 ft | 443 kts | 142° |
| 2026-05-07 07:22 | 45.81588 | 14.94772 | 34997 ft | 444 kts | 142° |
| 2026-05-07 07:23 | 45.76968 | 15.00626 | 34986 ft | 444 kts | 142° |
| 2026-05-07 07:23 | 45.72362 | 15.06453 | 35001 ft | 444 kts | 142° |
| 2026-05-07 07:24 | 45.67736 | 15.12297 | 35000 ft | 445 kts | 142° |
| 2026-05-07 07:24 | 45.63092 | 15.18143 | 35004 ft | 445 kts | 142° |
| 2026-05-07 07:25 | 45.56116 | 15.26905 | 35009 ft | 445 kts | 142° |
| 2026-05-07 07:26 | 45.51464 | 15.32734 | 35006 ft | 445 kts | 142° |
| 2026-05-07 07:26 | 45.46812 | 15.38534 | 35006 ft | 445 kts | 142° |
| 2026-05-07 07:27 | 45.42152 | 15.44341 | 34996 ft | 445 kts | 142° |
| 2026-05-07 07:27 | 45.37502 | 15.50130 | 34993 ft | 444 kts | 142° |
| 2026-05-07 07:28 | 45.32842 | 15.55910 | 35004 ft | 444 kts | 142° |
| 2026-05-07 07:28 | 45.28187 | 15.61663 | 35003 ft | 444 kts | 142° |
| 2026-05-07 07:29 | 45.23526 | 15.67421 | 35000 ft | 444 kts | 142° |
| 2026-05-07 07:29 | 45.18866 | 15.73168 | 35003 ft | 444 kts | 142° |
| 2026-05-07 07:30 | 45.14198 | 15.78908 | 35002 ft | 444 kts | 142° |
| 2026-05-07 07:30 | 45.09522 | 15.84641 | 35006 ft | 444 kts | 142° |
| 2026-05-07 07:31 | 45.04849 | 15.90366 | 35008 ft | 445 kts | 142° |
| 2026-05-07 07:31 | 45.00204 | 15.96041 | 35011 ft | 445 kts | 142° |
| 2026-05-07 07:32 | 44.95519 | 16.01755 | 35021 ft | 445 kts | 142° |
| 2026-05-07 07:32 | 44.90823 | 16.07461 | 35021 ft | 445 kts | 142° |
| 2026-05-07 07:33 | 44.86125 | 16.13158 | 35025 ft | 446 kts | 142° |
| 2026-05-07 07:33 | 44.81425 | 16.18855 | 35025 ft | 445 kts | 142° |
| 2026-05-07 07:34 | 44.76733 | 16.24519 | 35026 ft | 445 kts | 142° |
| 2026-05-07 07:34 | 44.72015 | 16.30194 | 35028 ft | 445 kts | 142° |
| 2026-05-07 07:35 | 44.67314 | 16.35852 | 35028 ft | 445 kts | 142° |
| 2026-05-07 07:35 | 44.62615 | 16.41495 | 35025 ft | 445 kts | 142° |
| 2026-05-07 07:36 | 44.57903 | 16.47128 | 35025 ft | 445 kts | 142° |
| 2026-05-07 07:36 | 44.53189 | 16.52754 | 35023 ft | 445 kts | 142° |
| 2026-05-07 07:37 | 44.48472 | 16.58384 | 35023 ft | 445 kts | 142° |
| 2026-05-07 07:37 | 44.43754 | 16.64014 | 35027 ft | 445 kts | 142° |
| 2026-05-07 07:38 | 44.39031 | 16.69609 | 35030 ft | 446 kts | 142° |
| 2026-05-07 07:38 | 44.34295 | 16.75201 | 35035 ft | 445 kts | 142° |
| 2026-05-07 07:39 | 44.29561 | 16.80799 | 35037 ft | 446 kts | 142° |
| 2026-05-07 07:39 | 44.24862 | 16.86333 | 35036 ft | 445 kts | 143° |
| 2026-05-07 07:40 | 44.20120 | 16.91895 | 35039 ft | 446 kts | 142° |
| 2026-05-07 07:40 | 44.15370 | 16.97468 | 35044 ft | 446 kts | 143° |
| 2026-05-07 07:41 | 44.10621 | 17.03035 | 35051 ft | 447 kts | 143° |
| 2026-05-07 07:41 | 44.05868 | 17.08594 | 35056 ft | 447 kts | 143° |
| 2026-05-07 07:42 | 44.01115 | 17.14149 | 35057 ft | 447 kts | 143° |
| 2026-05-07 07:42 | 43.96339 | 17.19707 | 35065 ft | 447 kts | 143° |
| 2026-05-07 07:43 | 43.91575 | 17.25234 | 35069 ft | 446 kts | 143° |
| 2026-05-07 07:43 | 43.86813 | 17.30733 | 35073 ft | 446 kts | 143° |
| 2026-05-07 07:44 | 43.82059 | 17.36236 | 35073 ft | 445 kts | 143° |
| 2026-05-07 07:44 | 43.77311 | 17.41726 | 35071 ft | 444 kts | 143° |
| 2026-05-07 07:45 | 43.72565 | 17.47190 | 35070 ft | 445 kts | 143° |
| 2026-05-07 07:45 | 43.67798 | 17.52655 | 35073 ft | 445 kts | 143° |
| 2026-05-07 07:46 | 43.63032 | 17.58116 | 35082 ft | 445 kts | 143° |
| 2026-05-07 07:46 | 43.58259 | 17.63575 | 35096 ft | 445 kts | 143° |
| 2026-05-07 07:47 | 43.53491 | 17.69017 | 35097 ft | 445 kts | 143° |
| 2026-05-07 07:47 | 43.48725 | 17.74434 | 35096 ft | 445 kts | 143° |
| 2026-05-07 07:48 | 43.43956 | 17.79854 | 35096 ft | 445 kts | 143° |
| 2026-05-07 07:48 | 43.39175 | 17.85280 | 35102 ft | 445 kts | 143° |
| 2026-05-07 07:49 | 43.34396 | 17.90685 | 35106 ft | 445 kts | 143° |
| 2026-05-07 07:49 | 43.29611 | 17.96086 | 35109 ft | 445 kts | 143° |
| 2026-05-07 07:50 | 43.24825 | 18.01487 | 35109 ft | 445 kts | 143° |
| 2026-05-07 07:50 | 43.20041 | 18.06872 | 35106 ft | 445 kts | 143° |
| 2026-05-07 07:51 | 43.15290 | 18.12212 | 35101 ft | 445 kts | 143° |
| 2026-05-07 07:51 | 43.10497 | 18.17571 | 35104 ft | 445 kts | 143° |
| 2026-05-07 07:52 | 43.05698 | 18.22926 | 35101 ft | 445 kts | 143° |
| 2026-05-07 07:52 | 43.00895 | 18.28281 | 35098 ft | 445 kts | 143° |
| 2026-05-07 07:53 | 42.96086 | 18.33634 | 35105 ft | 446 kts | 143° |
| 2026-05-07 07:53 | 42.91274 | 18.38986 | 35112 ft | 446 kts | 143° |
| 2026-05-07 07:54 | 42.87269 | 18.43429 | 35122 ft | 447 kts | 143° |
| 2026-05-07 07:54 | 42.82408 | 18.48803 | 35121 ft | 447 kts | 143° |
| 2026-05-07 07:55 | 42.77579 | 18.54130 | 35125 ft | 447 kts | 144° |
| 2026-05-07 07:55 | 42.72753 | 18.59440 | 35127 ft | 446 kts | 144° |
| 2026-05-07 07:56 | 42.67951 | 18.64724 | 35134 ft | 447 kts | 144° |
| 2026-05-07 07:56 | 42.63115 | 18.70036 | 35136 ft | 447 kts | 144° |
| 2026-05-07 07:57 | 42.58284 | 18.75339 | 35146 ft | 447 kts | 144° |
| 2026-05-07 07:57 | 42.53427 | 18.80631 | 35157 ft | 448 kts | 144° |
| 2026-05-07 07:58 | 42.48574 | 18.85921 | 35158 ft | 448 kts | 144° |
| 2026-05-07 07:58 | 42.43726 | 18.91205 | 35164 ft | 448 kts | 144° |
| 2026-05-07 07:59 | 42.38858 | 18.96494 | 35165 ft | 448 kts | 144° |
| 2026-05-07 07:59 | 42.33990 | 19.01762 | 35164 ft | 448 kts | 144° |
| 2026-05-07 08:00 | 42.29115 | 19.07028 | 35163 ft | 449 kts | 144° |
| 2026-05-07 08:00 | 42.24239 | 19.12290 | 35164 ft | 450 kts | 144° |
| 2026-05-07 08:01 | 42.19353 | 19.17557 | 35163 ft | 450 kts | 144° |
| 2026-05-07 08:01 | 42.14461 | 19.22806 | 35159 ft | 450 kts | 144° |
| 2026-05-07 08:02 | 42.09549 | 19.28066 | 35161 ft | 452 kts | 144° |
| 2026-05-07 08:02 | 42.04624 | 19.33350 | 35165 ft | 452 kts | 144° |
| 2026-05-07 08:03 | 41.99703 | 19.38617 | 35165 ft | 453 kts | 144° |
| 2026-05-07 08:03 | 41.94765 | 19.43896 | 35164 ft | 453 kts | 144° |
| 2026-05-07 08:04 | 41.89821 | 19.49160 | 35163 ft | 454 kts | 144° |
| 2026-05-07 08:04 | 41.84895 | 19.54376 | 35166 ft | 454 kts | 144° |
| 2026-05-07 08:05 | 41.79931 | 19.59628 | 35168 ft | 455 kts | 144° |
| 2026-05-07 08:05 | 41.74966 | 19.64875 | 35167 ft | 455 kts | 144° |
| 2026-05-07 08:06 | 41.69994 | 19.70126 | 35167 ft | 455 kts | 144° |
| 2026-05-07 08:06 | 41.65015 | 19.75377 | 35169 ft | 456 kts | 144° |
| 2026-05-07 08:07 | 41.60033 | 19.80617 | 35173 ft | 456 kts | 144° |
| 2026-05-07 08:07 | 41.55043 | 19.85850 | 35179 ft | 456 kts | 144° |
| 2026-05-07 08:08 | 41.50054 | 19.91076 | 35184 ft | 456 kts | 144° |
| 2026-05-07 08:08 | 41.45056 | 19.96298 | 35185 ft | 456 kts | 144° |
| 2026-05-07 08:09 | 41.40061 | 20.01507 | 35189 ft | 456 kts | 144° |
| 2026-05-07 08:09 | 41.35055 | 20.06705 | 35183 ft | 456 kts | 144° |
| 2026-05-07 08:10 | 41.30048 | 20.11901 | 35182 ft | 457 kts | 144° |
| 2026-05-07 08:10 | 41.25041 | 20.17093 | 35181 ft | 457 kts | 144° |
| 2026-05-07 08:11 | 41.20027 | 20.22277 | 35184 ft | 457 kts | 144° |
| 2026-05-07 08:11 | 41.15008 | 20.27461 | 35190 ft | 457 kts | 144° |
| 2026-05-07 08:12 | 41.09996 | 20.32639 | 35195 ft | 457 kts | 144° |
| 2026-05-07 08:12 | 41.04975 | 20.37807 | 35205 ft | 457 kts | 144° |
| 2026-05-07 08:13 | 40.99947 | 20.42958 | 35208 ft | 457 kts | 144° |
| 2026-05-07 08:13 | 40.94916 | 20.48100 | 35208 ft | 456 kts | 144° |
| 2026-05-07 08:14 | 40.89893 | 20.53231 | 35210 ft | 456 kts | 144° |
| 2026-05-07 08:14 | 40.84871 | 20.58360 | 35209 ft | 456 kts | 144° |
| 2026-05-07 08:15 | 40.79842 | 20.63475 | 35207 ft | 456 kts | 144° |
| 2026-05-07 08:15 | 40.74807 | 20.68582 | 35208 ft | 457 kts | 144° |
| 2026-05-07 08:16 | 40.69771 | 20.73698 | 35206 ft | 457 kts | 144° |
| 2026-05-07 08:16 | 40.64773 | 20.78773 | 35204 ft | 456 kts | 144° |
| 2026-05-07 08:17 | 40.59735 | 20.83856 | 35199 ft | 457 kts | 144° |
| 2026-05-07 08:17 | 40.54685 | 20.88931 | 35201 ft | 457 kts | 144° |
| 2026-05-07 08:18 | 40.49641 | 20.94004 | 35203 ft | 456 kts | 144° |
| 2026-05-07 08:18 | 40.44852 | 20.99497 | 35193 ft | 458 kts | 139° |
| 2026-05-07 08:19 | 40.40167 | 21.05170 | 35188 ft | 458 kts | 139° |
| 2026-05-07 08:19 | 40.35478 | 21.10822 | 35183 ft | 458 kts | 139° |
| 2026-05-07 08:20 | 40.30780 | 21.16479 | 35178 ft | 458 kts | 139° |
| 2026-05-07 08:20 | 40.26086 | 21.22125 | 35173 ft | 459 kts | 139° |
| 2026-05-07 08:21 | 40.21381 | 21.27768 | 35170 ft | 459 kts | 139° |
| 2026-05-07 08:21 | 40.16671 | 21.33410 | 35167 ft | 459 kts | 139° |
| 2026-05-07 08:22 | 40.11959 | 21.39044 | 35163 ft | 459 kts | 139° |
| 2026-05-07 08:22 | 40.07245 | 21.44676 | 35162 ft | 459 kts | 139° |
| 2026-05-07 08:23 | 40.02528 | 21.50288 | 35157 ft | 459 kts | 139° |
| 2026-05-07 08:23 | 39.97811 | 21.55892 | 35153 ft | 459 kts | 139° |
| 2026-05-07 08:24 | 39.93085 | 21.61488 | 35150 ft | 460 kts | 139° |
| 2026-05-07 08:24 | 39.88346 | 21.67094 | 35152 ft | 460 kts | 139° |
| 2026-05-07 08:25 | 39.83641 | 21.72655 | 35154 ft | 460 kts | 139° |
| 2026-05-07 08:25 | 39.78865 | 21.78291 | 35154 ft | 460 kts | 139° |
| 2026-05-07 08:26 | 39.71772 | 21.86636 | 35152 ft | 460 kts | 140° |
| 2026-05-07 08:26 | 39.67016 | 21.92212 | 35143 ft | 461 kts | 140° |
| 2026-05-07 08:27 | 39.62261 | 21.97780 | 35137 ft | 460 kts | 140° |
| 2026-05-07 08:27 | 39.57502 | 22.03343 | 35134 ft | 460 kts | 140° |
| 2026-05-07 08:28 | 39.52742 | 22.08900 | 35127 ft | 461 kts | 140° |
| 2026-05-07 08:28 | 39.47970 | 22.14453 | 35121 ft | 461 kts | 140° |
| 2026-05-07 08:29 | 39.43205 | 22.19989 | 35117 ft | 461 kts | 140° |
| 2026-05-07 08:29 | 39.38426 | 22.25522 | 35115 ft | 462 kts | 140° |
| 2026-05-07 08:30 | 39.33639 | 22.31061 | 35110 ft | 462 kts | 140° |
| 2026-05-07 08:30 | 39.28842 | 22.36615 | 35110 ft | 463 kts | 140° |
| 2026-05-07 08:31 | 39.24043 | 22.42150 | 35109 ft | 463 kts | 140° |
| 2026-05-07 08:31 | 39.19226 | 22.47687 | 35105 ft | 464 kts | 140° |
| 2026-05-07 08:32 | 39.14401 | 22.53221 | 35104 ft | 465 kts | 140° |
| 2026-05-07 08:32 | 39.09570 | 22.58756 | 35105 ft | 465 kts | 140° |
| 2026-05-07 08:33 | 39.04734 | 22.64303 | 35104 ft | 466 kts | 140° |
| 2026-05-07 08:33 | 38.99885 | 22.69851 | 35104 ft | 466 kts | 140° |
| 2026-05-07 08:34 | 38.95034 | 22.75382 | 35098 ft | 467 kts | 140° |
| 2026-05-07 08:34 | 38.90163 | 22.80909 | 35102 ft | 467 kts | 140° |
| 2026-05-07 08:35 | 38.85299 | 22.86428 | 35105 ft | 467 kts | 140° |
| 2026-05-07 08:35 | 38.80468 | 22.91911 | 35100 ft | 467 kts | 140° |
| 2026-05-07 08:36 | 38.75598 | 22.97424 | 35100 ft | 467 kts | 140° |
| 2026-05-07 08:36 | 38.70719 | 23.02931 | 35101 ft | 468 kts | 140° |
| 2026-05-07 08:37 | 38.65835 | 23.08430 | 35099 ft | 467 kts | 140° |
| 2026-05-07 08:37 | 38.60947 | 23.13922 | 35096 ft | 468 kts | 140° |
| 2026-05-07 08:38 | 38.56058 | 23.19410 | 35096 ft | 468 kts | 140° |
| 2026-05-07 08:38 | 38.51171 | 23.24904 | 35100 ft | 468 kts | 140° |
| 2026-05-07 08:39 | 38.46268 | 23.30385 | 35104 ft | 468 kts | 140° |
| 2026-05-07 08:39 | 38.41360 | 23.35864 | 35109 ft | 469 kts | 140° |
| 2026-05-07 08:40 | 38.37286 | 23.40406 | 35106 ft | 468 kts | 140° |
| 2026-05-07 08:40 | 38.32375 | 23.45869 | 35103 ft | 468 kts | 140° |
| 2026-05-07 08:41 | 38.27465 | 23.51324 | 35103 ft | 468 kts | 139° |
| 2026-05-07 08:41 | 38.22559 | 23.56771 | 35101 ft | 468 kts | 139° |
| 2026-05-07 08:42 | 38.17637 | 23.62211 | 35102 ft | 468 kts | 139° |
| 2026-05-07 08:42 | 38.12723 | 23.67630 | 35103 ft | 468 kts | 139° |
| 2026-05-07 08:43 | 38.07794 | 23.73065 | 35104 ft | 469 kts | 139° |
| 2026-05-07 08:43 | 38.02873 | 23.78487 | 35110 ft | 469 kts | 139° |
| 2026-05-07 08:44 | 37.97942 | 23.83900 | 35116 ft | 469 kts | 139° |
| 2026-05-07 08:44 | 37.93001 | 23.89316 | 35123 ft | 470 kts | 139° |
| 2026-05-07 08:45 | 37.88059 | 23.94722 | 35130 ft | 469 kts | 139° |
| 2026-05-07 08:45 | 37.83153 | 24.00082 | 35131 ft | 469 kts | 139° |
| 2026-05-07 08:46 | 37.78220 | 24.05468 | 35126 ft | 469 kts | 139° |
| 2026-05-07 08:46 | 37.73279 | 24.10850 | 35128 ft | 469 kts | 140° |
| 2026-05-07 08:47 | 37.68334 | 24.16214 | 35127 ft | 469 kts | 140° |
| 2026-05-07 08:47 | 37.63377 | 24.21578 | 35133 ft | 469 kts | 140° |
| 2026-05-07 08:48 | 37.58409 | 24.26946 | 35137 ft | 470 kts | 140° |
| 2026-05-07 08:48 | 37.53178 | 24.31871 | 35146 ft | 470 kts | 149° |
| 2026-05-07 08:49 | 37.47632 | 24.36235 | 35144 ft | 470 kts | 148° |
| 2026-05-07 08:49 | 37.42097 | 24.40587 | 35139 ft | 469 kts | 149° |
| 2026-05-07 08:50 | 37.36554 | 24.44930 | 35143 ft | 470 kts | 149° |
| 2026-05-07 08:50 | 37.31005 | 24.49268 | 35148 ft | 470 kts | 149° |
| 2026-05-07 08:51 | 37.25449 | 24.53610 | 35149 ft | 470 kts | 149° |
| 2026-05-07 08:51 | 37.19887 | 24.57947 | 35151 ft | 471 kts | 149° |
| 2026-05-07 08:52 | 37.14306 | 24.62288 | 35152 ft | 472 kts | 149° |
| 2026-05-07 08:52 | 37.08762 | 24.66596 | 35154 ft | 472 kts | 149° |
| 2026-05-07 08:53 | 37.03171 | 24.70936 | 35155 ft | 473 kts | 149° |
| 2026-05-07 08:53 | 36.97581 | 24.75269 | 35157 ft | 473 kts | 149° |
| 2026-05-07 08:54 | 36.91977 | 24.79607 | 35157 ft | 473 kts | 149° |
| 2026-05-07 08:54 | 36.86374 | 24.83935 | 35158 ft | 474 kts | 149° |
| 2026-05-07 08:55 | 36.80772 | 24.88267 | 35160 ft | 473 kts | 149° |
| 2026-05-07 08:55 | 36.78008 | 24.90403 | 34964 ft | 474 kts | 149° |
| 2026-05-07 08:55 | 36.75165 | 24.92601 | 34705 ft | 474 kts | 149° |
| 2026-05-07 08:56 | 36.72362 | 24.94765 | 34447 ft | 473 kts | 149° |
| 2026-05-07 08:56 | 36.69567 | 24.96921 | 34221 ft | 473 kts | 149° |
| 2026-05-07 08:56 | 36.66768 | 24.99074 | 33964 ft | 472 kts | 149° |
| 2026-05-07 08:56 | 36.63975 | 25.01218 | 33361 ft | 473 kts | 149° |
| 2026-05-07 08:57 | 36.61142 | 25.03384 | 32328 ft | 480 kts | 149° |
| 2026-05-07 08:57 | 36.58289 | 25.05562 | 31387 ft | 483 kts | 149° |
| 2026-05-07 08:57 | 36.55418 | 25.07752 | 30376 ft | 486 kts | 149° |
| 2026-05-07 08:57 | 36.52527 | 25.09963 | 29259 ft | 491 kts | 148° |
| 2026-05-07 08:58 | 36.49608 | 25.12200 | 28408 ft | 489 kts | 148° |
| 2026-05-07 08:58 | 36.46738 | 25.14393 | 27774 ft | 482 kts | 149° |
| 2026-05-07 08:58 | 36.43891 | 25.16559 | 27067 ft | 477 kts | 149° |
| 2026-05-07 08:58 | 36.41086 | 25.18691 | 26374 ft | 471 kts | 149° |
| 2026-05-07 08:59 | 36.38305 | 25.20806 | 25688 ft | 465 kts | 149° |
| 2026-05-07 08:59 | 36.35594 | 25.22868 | 25036 ft | 460 kts | 149° |
| 2026-05-07 08:59 | 36.32845 | 25.24957 | 24365 ft | 455 kts | 149° |
| 2026-05-07 08:59 | 36.30192 | 25.26968 | 23725 ft | 451 kts | 149° |
| 2026-05-07 09:00 | 36.27530 | 25.28985 | 23078 ft | 446 kts | 149° |
| 2026-05-07 09:00 | 36.24905 | 25.30971 | 22467 ft | 442 kts | 149° |
| 2026-05-07 09:00 | 36.22288 | 25.32951 | 21879 ft | 437 kts | 149° |
| 2026-05-07 09:00 | 36.19712 | 25.34902 | 21321 ft | 432 kts | 149° |
| 2026-05-07 09:01 | 36.17162 | 25.36835 | 20769 ft | 427 kts | 149° |
| 2026-05-07 09:01 | 36.14644 | 25.38745 | 20239 ft | 421 kts | 149° |
| 2026-05-07 09:01 | 36.12093 | 25.40476 | 19718 ft | 416 kts | 156° |
| 2026-05-07 09:01 | 36.09405 | 25.41692 | 19238 ft | 409 kts | 163° |
| 2026-05-07 09:02 | 36.06706 | 25.42766 | 18741 ft | 405 kts | 163° |
| 2026-05-07 09:02 | 36.04039 | 25.43831 | 18257 ft | 401 kts | 162° |
| 2026-05-07 09:02 | 36.01399 | 25.44892 | 17776 ft | 397 kts | 162° |
| 2026-05-07 09:02 | 35.98781 | 25.45946 | 17274 ft | 394 kts | 162° |
| 2026-05-07 09:03 | 35.96178 | 25.46997 | 16782 ft | 392 kts | 162° |
| 2026-05-07 09:03 | 35.93597 | 25.48036 | 16287 ft | 389 kts | 162° |
| 2026-05-07 09:03 | 35.91033 | 25.49067 | 15774 ft | 387 kts | 162° |
| 2026-05-07 09:03 | 35.88475 | 25.50087 | 15202 ft | 385 kts | 164° |
| 2026-05-07 09:04 | 35.85829 | 25.50609 | 14171 ft | 386 kts | 181° |
| 2026-05-07 09:04 | 35.83207 | 25.50127 | 13158 ft | 379 kts | 196° |
| 2026-05-07 09:04 | 35.80679 | 25.49302 | 12180 ft | 373 kts | 196° |
| 2026-05-07 09:04 | 35.78188 | 25.48485 | 11175 ft | 368 kts | 196° |
| 2026-05-07 09:05 | 35.75769 | 25.47697 | 10715 ft | 348 kts | 195° |
| 2026-05-07 09:05 | 35.73513 | 25.46967 | 10592 ft | 321 kts | 195° |
| 2026-05-07 09:05 | 35.71429 | 25.46293 | 10458 ft | 299 kts | 195° |
| 2026-05-07 09:05 | 35.69502 | 25.45718 | 10321 ft | 280 kts | 193° |
| 2026-05-07 09:06 | 35.67663 | 25.45215 | 10197 ft | 261 kts | 193° |
| 2026-05-07 09:06 | 35.65904 | 25.44750 | 9961 ft | 261 kts | 193° |
| 2026-05-07 09:06 | 35.64079 | 25.44268 | 9476 ft | 267 kts | 193° |
| 2026-05-07 09:06 | 35.62253 | 25.43780 | 9022 ft | 271 kts | 193° |
| 2026-05-07 09:07 | 35.60404 | 25.43282 | 8559 ft | 274 kts | 193° |
| 2026-05-07 09:07 | 35.58558 | 25.42784 | 8121 ft | 276 kts | 193° |
| 2026-05-07 09:07 | 35.56677 | 25.42275 | 7665 ft | 278 kts | 193° |
| 2026-05-07 09:07 | 35.54799 | 25.41766 | 7207 ft | 273 kts | 193° |
| 2026-05-07 09:08 | 35.52965 | 25.41268 | 6766 ft | 265 kts | 193° |
| 2026-05-07 09:08 | 35.51198 | 25.40788 | 6339 ft | 257 kts | 192° |
| 2026-05-07 09:08 | 35.49459 | 25.40316 | 5833 ft | 254 kts | 193° |
| 2026-05-07 09:08 | 35.47752 | 25.39851 | 5387 ft | 249 kts | 193° |
| 2026-05-07 09:09 | 35.46068 | 25.39496 | 4975 ft | 244 kts | 182° |
| 2026-05-07 09:09 | 35.44410 | 25.39701 | 4579 ft | 238 kts | 165° |
| 2026-05-07 09:09 | 35.42891 | 25.40452 | 4190 ft | 233 kts | 153° |
| 2026-05-07 09:09 | 35.41428 | 25.41258 | 3809 ft | 229 kts | 158° |
| 2026-05-07 09:10 | 35.39941 | 25.41903 | 3430 ft | 225 kts | 163° |
| 2026-05-07 09:10 | 35.38446 | 25.42390 | 3156 ft | 216 kts | 167° |
| 2026-05-07 09:10 | 35.37012 | 25.42711 | 3114 ft | 204 kts | 172° |
| 2026-05-07 09:10 | 35.35617 | 25.42862 | 3062 ft | 199 kts | 184° |
| 2026-05-07 09:11 | 35.34327 | 25.42378 | 2989 ft | 192 kts | 211° |
| 2026-05-07 09:11 | 35.33386 | 25.41290 | 2922 ft | 184 kts | 236° |
| 2026-05-07 09:11 | 35.32910 | 25.39860 | 2864 ft | 181 kts | 261° |
| 2026-05-07 09:11 | 35.32912 | 25.38332 | 2807 ft | 180 kts | 275° |
| 2026-05-07 09:12 | 35.33008 | 25.36799 | 2736 ft | 179 kts | 274° |
| 2026-05-07 09:12 | 35.33094 | 25.35351 | 2663 ft | 160 kts | 274° |
| 2026-05-07 09:12 | 35.33176 | 25.34026 | 2565 ft | 153 kts | 275° |
| 2026-05-07 09:12 | 35.33255 | 25.32744 | 2412 ft | 149 kts | 274° |
| 2026-05-07 09:13 | 35.33327 | 25.31484 | 2266 ft | 148 kts | 274° |
| 2026-05-07 09:13 | 35.33399 | 25.30233 | 2101 ft | 148 kts | 274° |
| 2026-05-07 09:13 | 35.33471 | 25.28983 | 1877 ft | 147 kts | 274° |
| 2026-05-07 09:13 | 35.33542 | 25.27742 | 1676 ft | 146 kts | 274° |
| 2026-05-07 09:14 | 35.33613 | 25.26503 | 1457 ft | 145 kts | 274° |
| 2026-05-07 09:14 | 35.33681 | 25.25268 | 1255 ft | 146 kts | 272° |
| 2026-05-07 09:14 | 35.33647 | 25.24030 | 1070 ft | 143 kts | 268° |
| 2026-05-07 09:14 | 35.33648 | 25.22811 | 864 ft | 144 kts | 273° |
| 2026-05-07 09:15 | 35.33730 | 25.21599 | 662 ft | 145 kts | 276° |
| 2026-05-07 09:15 | 35.33812 | 25.20361 | 423 ft | 144 kts | 274° |
| 2026-05-07 09:15 | 35.33897 | 25.19139 | 139 ft | 143 kts | 275° |
| 2026-05-07 09:15 | 35.33975 | 25.18049 | 93 ft | 105 kts | 274° |
| 2026-05-07 09:16 | 35.34011 | 25.17498 | 91 ft | 40 kts | 275° |
| 2026-05-07 09:16 | 35.34028 | 25.17208 | 91 ft | 15 kts | 267° |
| 2026-05-07 09:16 | 35.33997 | 25.17111 | 90 ft | 12 kts | 245° |
| 2026-05-07 09:16 | 35.33961 | 25.17035 | 90 ft | 7 kts | 206° |
| 2026-05-07 09:17 | 35.33942 | 25.17065 | 90 ft | 4 kts | 94° |
| 2026-05-07 09:17 | 35.33940 | 25.17096 | 90 ft | 3 kts | 94° |
| 2026-05-07 09:17 | 35.33938 | 25.17118 | 90 ft | 2 kts | 94° |
| 2026-05-07 09:17 | 35.33935 | 25.17170 | 90 ft | 9 kts | 95° |
| 2026-05-07 09:18 | 35.33930 | 25.17238 | 91 ft | 7 kts | 95° |
| 2026-05-07 09:18 | 35.33923 | 25.17337 | 91 ft | 18 kts | 95° |
| 2026-05-07 09:18 | 35.33911 | 25.17492 | 91 ft | 12 kts | 107° |
| 2026-05-07 09:18 | 35.33885 | 25.17501 | 93 ft | 3 kts | 177° |
| 2026-05-07 09:19 | 35.33864 | 25.17499 | 91 ft | 3 kts | 186° |
| 2026-05-07 09:19 | 35.33843 | 25.17496 | 93 ft | 4 kts | 185° |
| 2026-05-07 09:19 | 35.33786 | 25.17490 | 91 ft | 9 kts | 187° |
| 2026-05-07 09:19 | 35.33767 | 25.17447 | 91 ft | 2 kts | 275° |
| 2026-05-07 09:20 | 35.33767 | 25.17431 | 91 ft | 2 kts | 270° |
| 2026-05-07 09:20 | 35.33769 | 25.17412 | 91 ft | 1 kts | 274° |
| 2026-05-07 09:20 | 35.33769 | 25.17411 | 93 ft | 0 kts | 274° |